Time,TemperatureF,DewpointF,PressureIn,WindDirection,WindDirectionDegrees,WindSpeedMPH,WindSpeedGustMPH,Humidity,HourlyPrecipIn,Conditions,Clouds,dailyrainin,SoftwareType,DateUTC
2013-10-30 00:13:00,54.0,52.0,30.38,WNW,285,0.0,0.0,92,0.00,,,0.00,,2013-10-30 04:13:00,
2013-10-30 00:44:00,53.0,51.0,30.37,WNW,284,0.0,0.0,92,0.00,,,0.00,,2013-10-30 04:44:00,
2013-10-30 00:53:00,53.0,51.0,30.37,WNW,284,0.0,0.0,92,0.00,,,0.00,,2013-10-30 04:53:00,
2013-10-30 01:13:00,53.0,51.0,30.36,WNW,285,0.0,0.0,92,0.00,,,0.00,,2013-10-30 05:13:00,
2013-10-30 01:22:00,52.0,50.0,30.37,WNW,284,0.0,0.0,92,0.00,,,0.00,,2013-10-30 05:22:00,
2013-10-30 01:53:00,52.0,50.0,30.37,WNW,285,0.0,0.0,93,0.00,,,0.00,,2013-10-30 05:53:00,
2013-10-30 02:13:00,52.0,50.0,30.37,WNW,284,0.0,0.0,93,0.00,,,0.00,,2013-10-30 06:13:00,
2013-10-30 02:22:00,52.0,50.0,30.36,WNW,284,0.0,0.0,93,0.00,,,0.00,,2013-10-30 06:22:00,
2013-10-30 02:42:00,52.0,50.0,30.36,WNW,285,0.0,0.0,93,0.00,,,0.00,,2013-10-30 06:42:00,
2013-10-30 02:53:00,51.0,49.0,30.36,WNW,285,0.0,0.0,93,0.00,,,0.00,,2013-10-30 06:53:00,
2013-10-30 03:12:00,51.0,49.0,30.36,WNW,285,0.0,0.0,93,0.00,,,0.00,,2013-10-30 07:12:00,
2013-10-30 03:22:00,51.0,49.0,30.36,WNW,284,0.0,0.0,93,0.00,,,0.00,,2013-10-30 07:22:00,
2013-10-30 03:42:00,50.0,48.0,30.36,WNW,285,0.0,0.0,93,0.00,,,0.00,,2013-10-30 07:42:00,
2013-10-30 03:52:00,50.0,48.0,30.37,WNW,285,0.0,0.0,93,0.00,,,0.00,,2013-10-30 07:52:00,
2013-10-30 04:12:00,50.0,48.0,30.36,WNW,285,0.0,0.0,93,0.00,,,0.00,,2013-10-30 08:12:00,
2013-10-30 04:22:00,50.0,48.0,30.35,WNW,284,0.0,0.0,94,0.00,,,0.00,,2013-10-30 08:22:00,
2013-10-30 04:42:00,50.0,48.0,30.35,WNW,285,0.0,0.0,94,0.00,,,0.00,,2013-10-30 08:42:00,
2013-10-30 04:52:00,50.0,48.0,30.35,WNW,285,0.0,0.0,94,0.00,,,0.00,,2013-10-30 08:52:00,
2013-10-30 05:11:00,50.0,48.0,30.35,WNW,285,0.0,0.0,94,0.00,,,0.00,,2013-10-30 09:11:00,
2013-10-30 05:22:00,50.0,48.0,30.36,WNW,284,0.0,0.0,94,0.00,,,0.00,,2013-10-30 09:22:00,
2013-10-30 05:43:00,50.0,48.0,30.36,WNW,285,0.0,0.0,94,0.00,,,0.00,,2013-10-30 09:43:00,
2013-10-30 05:54:00,50.0,48.0,30.36,WNW,284,0.0,0.0,94,0.00,,,0.00,,2013-10-30 09:54:00,
2013-10-30 06:13:00,50.0,48.0,30.37,WNW,284,0.0,0.0,94,0.00,,,0.00,,2013-10-30 10:13:00,
2013-10-30 06:23:00,50.0,48.0,30.36,WNW,285,0.0,0.0,94,0.00,,,0.00,,2013-10-30 10:23:00,
2013-10-30 09:52:00,54.0,53.0,30.39,WNW,284,0.0,0.0,95,0.00,,,0.00,,2013-10-30 13:52:00,
2013-10-30 10:11:00,55.0,54.0,30.39,WNW,284,0.0,0.0,96,0.00,,,0.00,,2013-10-30 14:11:00,
2013-10-30 10:21:00,57.0,56.0,30.39,WNW,287,0.0,0.0,96,0.00,,,0.00,,2013-10-30 14:21:00,
2013-10-30 10:42:00,58.0,57.0,30.38,WNW,287,0.0,2.0,95,0.00,,,0.00,,2013-10-30 14:42:00,
2013-10-30 10:52:00,60.0,58.0,30.38,WNW,287,0.0,1.0,93,0.00,,,0.00,,2013-10-30 14:52:00,
2013-10-30 11:11:00,61.0,59.0,30.38,WNW,287,0.0,0.0,93,0.00,,,0.00,,2013-10-30 15:11:00,
2013-10-30 11:22:00,64.0,60.0,30.38,SW,220,1.0,4.0,86,0.00,,,0.00,,2013-10-30 15:22:00,
2013-10-30 11:43:00,64.0,59.0,30.38,WSW,248,0.0,4.0,84,0.00,,,0.00,,2013-10-30 15:43:00,
2013-10-30 11:54:00,65.0,59.0,30.37,WSW,238,0.0,3.0,81,0.00,,,0.00,,2013-10-30 15:54:00,
2013-10-30 12:12:00,66.0,60.0,30.37,WSW,237,0.0,1.0,81,0.00,,,0.00,,2013-10-30 16:12:00,
2013-10-30 12:23:00,68.0,60.0,30.36,SE,145,1.0,5.0,75,0.00,,,0.00,,2013-10-30 16:23:00,
2013-10-30 12:43:00,70.0,61.0,30.35,SSE,162,0.0,2.0,72,0.00,,,0.00,,2013-10-30 16:43:00,
2013-10-30 12:53:00,72.0,60.0,30.35,SW,217,2.0,4.0,66,0.00,,,0.00,,2013-10-30 16:53:00,
2013-10-30 13:23:00,73.0,60.0,30.32,NE,55,0.0,3.0,64,0.00,,,0.00,,2013-10-30 17:23:00,
2013-10-30 13:42:00,73.0,59.0,30.32,SE,134,0.0,4.0,62,0.00,,,0.00,,2013-10-30 17:42:00,
2013-10-30 13:52:00,74.0,59.0,30.31,NW,309,1.0,4.0,60,0.00,,,0.00,,2013-10-30 17:52:00,
2013-10-30 14:12:00,75.0,60.0,30.30,ENE,72,0.0,5.0,60,0.00,,,0.00,,2013-10-30 18:12:00,
2013-10-30 14:22:00,75.0,61.0,30.29,South,178,0.0,4.0,61,0.00,,,0.00,,2013-10-30 18:22:00,
2013-10-30 14:42:00,75.0,60.0,30.29,ENE,65,0.0,5.0,59,0.00,,,0.00,,2013-10-30 18:42:00,
2013-10-30 14:52:00,76.0,61.0,30.28,WNW,303,1.0,6.0,59,0.00,,,0.00,,2013-10-30 18:52:00,
2013-10-30 15:11:00,76.0,60.0,30.27,SE,125,1.0,4.0,58,0.00,,,0.00,,2013-10-30 19:11:00,
2013-10-30 15:22:00,76.0,60.0,30.27,SE,129,2.0,4.0,58,0.00,,,0.00,,2013-10-30 19:22:00,
2013-10-30 15:52:00,77.0,60.0,30.26,ESE,114,0.0,2.0,56,0.00,,,0.00,,2013-10-30 19:52:00,
2013-10-30 16:12:00,77.0,60.0,30.26,West,261,2.0,4.0,55,0.00,,,0.00,,2013-10-30 20:12:00,
2013-10-30 16:22:00,77.0,60.0,30.25,ESE,105,0.0,5.0,56,0.00,,,0.00,,2013-10-30 20:22:00,
2013-10-30 16:42:00,78.0,60.0,30.25,SW,217,1.0,3.0,54,0.00,,,0.00,,2013-10-30 20:42:00,
2013-10-30 16:52:00,78.0,59.0,30.26,WNW,300,0.0,3.0,53,0.00,,,0.00,,2013-10-30 20:52:00,
2013-10-30 17:22:00,78.0,61.0,30.26,NNE,28,0.0,1.0,55,0.00,,,0.00,,2013-10-30 21:22:00,
2013-10-30 17:53:00,75.0,58.0,30.26,SSE,158,0.0,1.0,56,0.00,,,0.00,,2013-10-30 21:53:00,
2013-10-30 18:13:00,74.0,59.0,30.25,SSE,158,0.0,2.0,59,0.00,,,0.00,,2013-10-30 22:13:00,
2013-10-30 18:23:00,73.0,59.0,30.26,SSE,158,0.0,0.0,62,0.00,,,0.00,,2013-10-30 22:23:00,
2013-10-30 18:43:00,72.0,60.0,30.27,SSE,157,0.0,0.0,65,0.00,,,0.00,,2013-10-30 22:43:00,
2013-10-30 18:54:00,70.0,59.0,30.27,SSE,158,0.0,0.0,69,0.00,,,0.00,,2013-10-30 22:54:00,
2013-10-30 19:12:00,69.0,59.0,30.27,SSE,158,0.0,0.0,70,0.00,,,0.00,,2013-10-30 23:12:00,
2013-10-30 19:23:00,67.0,58.0,30.28,SSE,158,0.0,0.0,73,0.00,,,0.00,,2013-10-30 23:23:00,
2013-10-30 19:53:00,65.0,58.0,30.28,SSE,157,0.0,0.0,78,0.00,,,0.00,,2013-10-30 23:53:00,
2013-10-30 20:11:00,64.0,58.0,30.28,SSE,158,0.0,0.0,80,0.00,,,0.00,,2013-10-31 00:11:00,
2013-10-30 20:22:00,62.0,56.0,30.28,SSE,158,0.0,0.0,82,0.00,,,0.00,,2013-10-31 00:22:00,
2013-10-30 20:52:00,61.0,56.0,30.29,SSE,158,0.0,0.0,84,0.00,,,0.00,,2013-10-31 00:52:00,
2013-10-30 21:12:00,61.0,56.0,30.28,SSE,157,0.0,0.0,84,0.00,,,0.00,,2013-10-31 01:12:00,
2013-10-30 21:22:00,60.0,56.0,30.28,SSE,158,0.0,0.0,86,0.00,,,0.00,,2013-10-31 01:22:00,
2013-10-30 21:42:00,59.0,55.0,30.28,SSE,158,0.0,0.0,86,0.00,,,0.00,,2013-10-31 01:42:00,
2013-10-30 21:53:00,59.0,55.0,30.29,SSE,158,0.0,0.0,87,0.00,,,0.00,,2013-10-31 01:53:00,
2013-10-30 22:12:00,59.0,55.0,30.29,SSE,157,0.0,0.0,87,0.00,,,0.00,,2013-10-31 02:12:00,
2013-10-30 22:22:00,58.0,54.0,30.29,SSE,158,0.0,0.0,88,0.00,,,0.00,,2013-10-31 02:22:00,
2013-10-30 23:12:00,57.0,54.0,30.30,SSE,158,0.0,0.0,89,0.00,,,0.00,,2013-10-31 03:12:00,
2013-10-30 23:22:00,56.0,53.0,30.30,SSE,157,0.0,0.0,90,0.00,,,0.00,,2013-10-31 03:22:00,
2013-10-30 23:44:00,56.0,53.0,30.29,SSE,157,0.0,0.0,91,0.00,,,0.00,,2013-10-31 03:44:00,
2013-10-30 23:55:00,56.0,53.0,30.29,SSE,158,0.0,0.0,91,0.00,,,0.00,,2013-10-31 03:55:00,